createdAt,value
2023-09-08T00:02:29.577Z,100414.81
2023-09-08T00:04:57.069Z,100409.00
2023-09-08T00:07:24.181Z,100413.66
2023-09-08T00:09:51.450Z,100410.63
2023-09-08T00:12:18.758Z,100406.75
2023-09-08T00:14:45.781Z,100404.97
2023-09-08T00:17:12.953Z,100402.13
2023-09-08T00:19:40.201Z,100401.41
2023-09-08T00:22:07.530Z,100397.03
2023-09-08T00:24:35.167Z,100397.84
2023-09-08T00:27:02.458Z,100400.03
2023-09-08T00:29:30.000Z,100397.19
2023-09-08T00:31:57.237Z,100398.59
2023-09-08T00:34:24.783Z,100398.81
2023-09-08T00:36:52.354Z,100393.03
2023-09-08T00:39:20.672Z,100401.56
2023-09-08T00:41:47.633Z,100396.03
2023-09-08T00:44:14.957Z,100396.16
2023-09-08T00:46:42.032Z,100399.81
2023-09-08T00:49:10.223Z,100406.03
2023-09-08T00:51:39.039Z,100408.78
2023-09-08T00:54:07.670Z,100410.66
2023-09-08T00:56:36.443Z,100415.75
2023-09-08T00:59:04.043Z,100399.03
2023-09-08T01:01:32.129Z,100402.78
2023-09-08T01:03:59.638Z,100402.84
2023-09-08T01:06:27.540Z,100396.13
2023-09-08T01:08:56.258Z,100405.28
2023-09-08T01:11:23.768Z,100411.59
2023-09-08T01:13:50.704Z,100412.13
2023-09-08T01:16:17.814Z,100408.81
2023-09-08T01:18:47.457Z,100412.81
2023-09-08T01:22:12.946Z,100408.81
2023-09-08T01:25:01.572Z,100411.25
2023-09-08T01:27:30.801Z,100408.47
2023-09-08T01:29:58.537Z,100416.63
2023-09-08T01:32:26.054Z,100418.91
2023-09-08T01:34:53.571Z,100416.63
2023-09-08T01:37:24.518Z,100417.53
2023-09-08T01:39:51.629Z,100413.91
2023-09-08T01:42:18.634Z,100407.84
2023-09-08T01:44:45.556Z,100415.19
2023-09-08T01:47:13.605Z,100409.88
2023-09-08T01:49:40.721Z,100409.50
2023-09-08T01:52:07.732Z,100409.94
2023-09-08T01:54:34.796Z,100410.09
2023-09-08T01:57:01.763Z,100402.38
2023-09-08T01:59:28.758Z,100405.41
2023-09-08T02:01:55.727Z,100401.38
2023-09-08T02:04:22.995Z,100405.72
2023-09-08T02:06:49.953Z,100408.44
2023-09-08T02:09:17.269Z,100409.34
2023-09-08T02:11:44.291Z,100403.38
2023-09-08T02:14:11.320Z,100402.97
2023-09-08T02:16:38.284Z,100412.53
2023-09-08T02:19:05.374Z,100413.06
2023-09-08T02:21:32.585Z,100418.16
2023-09-08T02:24:01.201Z,100401.81
2023-09-08T02:26:28.735Z,100408.69
2023-09-08T02:28:55.846Z,100404.03
2023-09-08T02:31:23.325Z,100408.09
2023-09-08T02:33:50.476Z,100403.03
2023-09-08T02:36:17.454Z,100404.84
2023-09-08T02:38:44.423Z,100404.53
2023-09-08T02:41:11.367Z,100405.63
2023-09-08T02:43:38.381Z,100410.47
2023-09-08T02:46:05.381Z,100406.22
2023-09-08T02:48:32.651Z,100407.56
2023-09-08T02:50:59.671Z,100409.53
2023-09-08T02:53:29.614Z,100412.34
2023-09-08T02:55:59.145Z,100397.97
2023-09-08T02:58:28.894Z,100401.94
2023-09-08T03:00:56.390Z,100401.50
2023-09-08T03:03:23.502Z,100398.88
2023-09-08T03:05:57.649Z,100404.75
2023-09-08T03:08:24.738Z,100408.06
2023-09-08T03:10:56.834Z,100410.53
2023-09-08T03:13:23.823Z,100422.59
2023-09-08T03:15:50.844Z,100414.88
2023-09-08T03:18:18.833Z,100420.13
2023-09-08T03:20:50.970Z,100420.63
2023-09-08T03:23:18.356Z,100430.13
2023-09-08T03:25:45.486Z,100431.38
2023-09-08T03:28:13.208Z,100432.56
2023-09-08T03:30:40.418Z,100429.56
2023-09-08T03:33:07.548Z,100430.53
2023-09-08T03:35:34.726Z,100433.22
2023-09-08T03:38:01.718Z,100415.47
2023-09-08T03:40:28.709Z,100426.19
2023-09-08T03:42:55.806Z,100429.47
2023-09-08T03:45:22.747Z,100425.97
2023-09-08T03:47:49.900Z,100426.38
2023-09-08T03:50:17.164Z,100429.97
2023-09-08T03:52:44.126Z,100431.81
2023-09-08T03:55:11.109Z,100427.84
2023-09-08T03:57:38.174Z,100423.97
2023-09-08T04:00:07.638Z,100434.72
2023-09-08T04:02:34.683Z,100435.69
2023-09-08T04:05:02.188Z,100427.88
2023-09-08T04:07:29.342Z,100431.31
2023-09-08T04:09:56.296Z,100428.88
2023-09-08T04:12:23.428Z,100435.88
2023-09-08T04:14:50.522Z,100429.84
2023-09-08T04:17:17.474Z,100441.81
2023-09-08T04:19:44.840Z,100449.75
2023-09-08T04:22:11.797Z,100443.69
2023-09-08T04:24:39.337Z,100437.44
2023-09-08T04:27:06.332Z,100438.81
2023-09-08T04:29:34.107Z,100444.69
2023-09-08T04:32:01.213Z,100450.81
2023-09-08T04:34:28.185Z,100448.78
2023-09-08T04:36:55.157Z,100451.88
2023-09-08T04:39:22.376Z,100451.44
2023-09-08T04:41:49.978Z,100445.03
2023-09-08T04:44:16.994Z,100445.75
2023-09-08T04:46:44.270Z,100449.38
2023-09-08T04:49:11.331Z,100454.75
2023-09-08T04:51:38.352Z,100460.47
2023-09-08T04:54:05.408Z,100456.63
2023-09-08T04:56:32.364Z,100465.13
2023-09-08T04:59:02.014Z,100465.94
2023-09-08T05:01:31.139Z,100469.91
2023-09-08T05:03:58.292Z,100474.34
2023-09-08T05:06:25.860Z,100471.34
2023-09-08T05:08:53.048Z,100478.50
2023-09-08T05:11:20.618Z,100475.66
2023-09-08T05:13:50.982Z,100475.06
2023-09-08T05:16:20.070Z,100472.34
2023-09-08T05:18:50.505Z,100479.38
2023-09-08T05:21:20.335Z,100473.50
2023-09-08T05:23:47.749Z,100472.63
2023-09-08T05:26:15.476Z,100481.09
2023-09-08T05:28:42.861Z,100471.88
2023-09-08T05:31:11.183Z,100483.78
2023-09-08T05:33:38.782Z,100472.88
2023-09-08T05:36:05.965Z,100472.09
2023-09-08T05:38:33.162Z,100474.47
2023-09-08T05:41:00.424Z,100477.50
2023-09-08T05:43:27.370Z,100475.00
2023-09-08T05:45:54.301Z,100470.19
2023-09-08T05:48:21.330Z,100477.38
2023-09-08T05:50:48.669Z,100479.44
2023-09-08T05:53:15.891Z,100479.88
2023-09-08T05:55:42.831Z,100483.81
2023-09-08T05:58:09.873Z,100486.06
2023-09-08T06:00:36.808Z,100482.69
2023-09-08T06:03:04.720Z,100485.31
2023-09-08T06:05:31.781Z,100481.88
2023-09-08T06:08:07.072Z,100486.47
2023-09-08T06:10:34.526Z,100489.72
2023-09-08T06:13:02.746Z,100492.25
2023-09-08T06:15:30.518Z,100480.72
2023-09-08T06:17:57.785Z,100478.72
2023-09-08T06:20:26.005Z,100487.66
2023-09-08T06:22:53.029Z,100491.97
2023-09-08T06:25:20.004Z,100498.16
2023-09-08T06:27:47.130Z,100493.78
2023-09-08T06:30:18.978Z,100493.16
2023-09-08T06:32:46.072Z,100487.50
2023-09-08T06:35:13.256Z,100498.34
2023-09-08T06:37:40.625Z,100496.13
2023-09-08T06:40:08.207Z,100489.84
2023-09-08T06:42:35.343Z,100487.69
2023-09-08T06:45:03.012Z,100481.28
2023-09-08T06:47:30.400Z,100489.09
2023-09-08T06:49:57.606Z,100482.25
2023-09-08T06:52:24.702Z,100481.78
2023-09-08T06:54:51.759Z,100473.31
2023-09-08T06:57:23.002Z,100477.31
2023-09-08T06:59:49.977Z,100484.75
2023-09-08T07:02:17.110Z,100475.09
2023-09-08T07:04:44.230Z,100477.72
2023-09-08T07:07:11.646Z,100472.34
2023-09-08T07:09:39.259Z,100477.22
2023-09-08T07:12:07.379Z,100476.63
2023-09-08T07:14:34.456Z,100481.91
2023-09-08T07:17:01.753Z,100464.66
2023-09-08T07:19:28.968Z,100475.00
2023-09-08T07:21:56.063Z,100467.47
2023-09-08T07:24:23.141Z,100471.97
2023-09-08T07:26:50.241Z,100478.47
2023-09-08T07:29:17.348Z,100475.03
2023-09-08T07:31:44.336Z,100471.22
2023-09-08T07:34:11.385Z,100468.97
2023-09-08T07:36:38.575Z,100473.84
2023-09-08T07:39:05.787Z,100461.84
2023-09-08T07:41:32.805Z,100478.13
2023-09-08T07:43:59.829Z,100473.44
2023-09-08T07:46:27.064Z,100474.84
2023-09-08T07:48:54.224Z,100481.59
2023-09-08T07:51:21.269Z,100479.66
2023-09-08T07:53:48.299Z,100478.47
2023-09-08T07:56:15.428Z,100487.00
2023-09-08T07:58:42.592Z,100476.16
2023-09-08T08:01:09.778Z,100476.38
2023-09-08T08:03:37.183Z,100467.03
2023-09-08T08:06:04.365Z,100467.03
2023-09-08T08:08:31.693Z,100469.38
2023-09-08T08:11:00.209Z,100478.22
2023-09-08T08:13:27.213Z,100470.69
2023-09-08T08:15:54.314Z,100474.31
2023-09-08T08:18:21.654Z,100465.00
2023-09-08T08:20:49.604Z,100470.19
2023-09-08T08:23:16.604Z,100467.91
2023-09-08T08:25:43.603Z,100462.59
2023-09-08T08:28:10.697Z,100467.47
2023-09-08T08:30:37.733Z,100460.16
2023-09-08T08:33:05.524Z,100456.88
2023-09-08T08:35:32.613Z,100455.34
2023-09-08T08:38:01.468Z,100463.69
2023-09-08T08:40:29.464Z,100449.34
2023-09-08T08:43:00.051Z,100455.84
2023-09-08T08:45:31.541Z,100454.84
2023-09-08T08:47:59.686Z,100456.56
2023-09-08T08:50:28.034Z,100454.44
2023-09-08T08:52:55.258Z,100450.09
2023-09-08T08:55:22.978Z,100458.19
2023-09-08T08:57:50.772Z,100450.22
2023-09-08T09:00:19.714Z,100448.25
2023-09-08T09:05:19.534Z,100444.44
2023-09-08T09:07:46.589Z,100446.47
2023-09-08T09:10:15.093Z,100445.56
2023-09-08T09:12:42.096Z,100442.28
2023-09-08T09:15:09.828Z,100444.34
2023-09-08T09:17:37.558Z,100448.81
2023-09-08T09:20:21.202Z,100444.63
2023-09-08T09:22:50.239Z,100451.81
2023-09-08T09:25:30.173Z,100449.69
2023-09-08T09:28:03.512Z,100452.94
2023-09-08T09:30:49.739Z,100447.16
2023-09-08T09:33:17.312Z,100446.34
2023-09-08T09:35:53.092Z,100446.22
2023-09-08T09:38:21.941Z,100435.03
2023-09-08T09:40:50.297Z,100427.69
2023-09-08T09:43:18.579Z,100433.53
2023-09-08T09:45:46.332Z,100434.75
2023-09-08T09:48:13.740Z,100423.44
2023-09-08T09:50:42.850Z,100413.13
2023-09-08T09:53:17.852Z,100416.59
2023-09-08T09:55:46.420Z,100410.19
2023-09-08T09:58:15.422Z,100406.63
2023-09-08T10:00:42.960Z,100416.19
2023-09-08T10:03:10.705Z,100410.97
2023-09-08T10:05:38.645Z,100402.28
2023-09-08T10:08:06.447Z,100397.50
2023-09-08T10:10:35.736Z,100407.34
2023-09-08T10:13:08.443Z,100410.25
2023-09-08T10:15:36.888Z,100411.19
2023-09-08T10:18:06.844Z,100403.91
2023-09-08T10:20:35.869Z,100410.56
2023-09-08T10:23:07.796Z,100417.28
2023-09-08T10:25:45.851Z,100409.16
2023-09-08T10:28:14.385Z,100405.63
2023-09-08T10:30:42.541Z,100397.47
2023-09-08T10:33:11.186Z,100400.41
2023-09-08T10:35:39.227Z,100391.34
2023-09-08T10:38:25.590Z,100398.72
2023-09-08T10:40:53.886Z,100402.97
2023-09-08T10:43:21.416Z,100395.94
2023-09-08T10:45:48.930Z,100391.63
2023-09-08T10:48:17.056Z,100390.88
2023-09-08T10:50:44.575Z,100376.88
2023-09-08T10:53:16.882Z,100374.78
2023-09-08T10:56:06.887Z,100377.91
2023-09-08T10:58:44.667Z,100372.66
2023-09-08T11:01:27.771Z,100372.56
2023-09-08T11:03:55.408Z,100368.88
2023-09-08T11:06:24.449Z,100365.88
2023-09-08T11:08:57.217Z,100369.97
2023-09-08T11:11:24.556Z,100375.53
2023-09-08T11:13:51.762Z,100367.44
2023-09-08T11:16:27.726Z,100371.59
2023-09-08T11:18:54.867Z,100372.38
2023-09-08T11:21:22.303Z,100372.19
2023-09-08T11:23:49.508Z,100376.53
2023-09-08T11:26:17.846Z,100366.75
2023-09-08T11:28:45.263Z,100364.31
2023-09-08T11:31:13.930Z,100357.09
2023-09-08T11:33:41.387Z,100361.63
2023-09-08T11:36:16.381Z,100356.56
2023-09-08T11:38:46.302Z,100358.88
2023-09-08T11:41:13.791Z,100358.63
2023-09-08T11:43:41.104Z,100350.66
2023-09-08T11:46:08.621Z,100342.88
2023-09-08T11:48:36.645Z,100344.75
2023-09-08T11:51:04.106Z,100335.63
2023-09-08T11:53:34.642Z,100339.66
2023-09-08T11:56:01.875Z,100332.41
2023-09-08T11:58:29.263Z,100331.25
2023-09-08T12:00:56.628Z,100326.16
2023-09-08T12:03:23.739Z,100327.44
2023-09-08T12:05:54.342Z,100330.66
2023-09-08T12:08:21.510Z,100333.72
2023-09-08T12:10:48.477Z,100338.56
2023-09-08T12:13:26.222Z,100338.84
2023-09-08T12:15:54.006Z,100331.59
2023-09-08T12:18:38.558Z,100329.19
2023-09-08T12:21:06.853Z,100319.50
2023-09-08T12:23:33.781Z,100330.50
2023-09-08T12:26:00.818Z,100323.66
2023-09-08T12:28:32.941Z,100324.28
2023-09-08T12:30:59.983Z,100319.28
2023-09-08T12:33:28.034Z,100323.00
2023-09-08T12:35:55.006Z,100324.28
2023-09-08T12:38:22.216Z,100314.50
2023-09-08T12:40:49.676Z,100302.97
2023-09-08T12:43:26.963Z,100312.81
2023-09-08T12:45:57.363Z,100304.34
2023-09-08T12:48:25.267Z,100299.78
2023-09-08T12:50:52.215Z,100311.41
2023-09-08T12:53:19.797Z,100293.88
2023-09-08T12:55:48.015Z,100294.25
2023-09-08T12:58:15.357Z,100298.50
2023-09-08T13:00:42.370Z,100297.91
2023-09-08T13:03:09.699Z,100296.28
2023-09-08T13:05:39.592Z,100283.66
2023-09-08T13:08:06.875Z,100290.19
2023-09-08T13:10:34.487Z,100285.53
2023-09-08T13:13:02.167Z,100287.13
2023-09-08T13:15:29.522Z,100283.13
2023-09-08T13:17:57.142Z,100291.94
2023-09-08T13:20:24.240Z,100289.16
2023-09-08T13:22:51.269Z,100287.25
2023-09-08T13:25:18.312Z,100285.53
2023-09-08T13:27:45.379Z,100281.19
2023-09-08T13:30:16.910Z,100282.59
2023-09-08T13:32:45.782Z,100287.16
2023-09-08T13:35:13.160Z,100277.81
2023-09-08T13:37:40.571Z,100270.06
2023-09-08T13:40:09.304Z,100275.97
2023-09-08T13:42:37.184Z,100273.28
2023-09-08T13:45:05.627Z,100270.88
2023-09-08T13:47:33.440Z,100260.72
2023-09-08T13:50:02.788Z,100269.53
2023-09-08T13:52:33.356Z,100265.72
2023-09-08T13:57:41.488Z,100264.75
2023-09-08T14:00:15.608Z,100264.25
2023-09-08T14:02:50.649Z,100264.50
2023-09-08T14:05:20.901Z,100264.75
2023-09-08T14:07:58.912Z,100258.78
2023-09-08T14:13:04.088Z,100256.78
2023-09-08T14:15:31.140Z,100252.78
2023-09-08T14:17:58.172Z,100252.00
2023-09-08T14:20:25.187Z,100251.81
2023-09-08T14:22:52.172Z,100244.28
2023-09-08T14:25:19.212Z,100257.06
2023-09-08T14:27:46.142Z,100250.66
2023-09-08T14:30:13.321Z,100244.25
2023-09-08T14:32:40.728Z,100248.25
2023-09-08T14:35:08.141Z,100236.41
2023-09-08T14:37:35.160Z,100250.91
2023-09-08T14:40:02.260Z,100241.31
2023-09-08T14:42:30.304Z,100239.34
2023-09-08T14:44:57.240Z,100248.56
2023-09-08T14:47:24.506Z,100246.34
2023-09-08T14:49:51.479Z,100228.66
2023-09-08T14:52:21.656Z,100227.47
2023-09-08T14:54:48.679Z,100230.03
2023-09-08T14:57:15.699Z,100228.63
2023-09-08T14:59:42.686Z,100239.97
2023-09-08T15:02:10.901Z,100237.28
2023-09-08T15:04:38.218Z,100241.84
2023-09-08T15:07:05.592Z,100240.06
2023-09-08T15:09:32.708Z,100235.91
2023-09-08T15:11:59.648Z,100235.19
2023-09-08T15:14:26.632Z,100232.22
2023-09-08T15:16:53.644Z,100241.84
2023-09-08T15:19:20.863Z,100234.34
2023-09-08T15:21:47.799Z,100237.34
2023-09-08T15:24:14.737Z,100238.22
2023-09-08T15:26:41.703Z,100237.41
2023-09-08T15:29:09.428Z,100239.50
2023-09-08T15:31:36.653Z,100228.69
2023-09-08T15:34:03.726Z,100224.91
2023-09-08T15:36:30.852Z,100225.22
2023-09-08T15:38:57.773Z,100225.41
2023-09-08T15:41:24.761Z,100224.06
2023-09-08T15:43:52.631Z,100226.03
2023-09-08T15:46:20.723Z,100226.63
2023-09-08T15:48:49.100Z,100221.28
2023-09-08T15:51:16.527Z,100233.41
2023-09-08T15:53:43.537Z,100225.88
2023-09-08T15:56:11.082Z,100226.69
2023-09-08T15:58:38.348Z,100218.00
2023-09-08T16:01:07.985Z,100217.16
2023-09-08T16:03:36.655Z,100213.19
2023-09-08T16:06:04.187Z,100219.66
2023-09-08T16:08:31.250Z,100215.94
2023-09-08T16:11:00.612Z,100215.13
2023-09-08T16:13:27.591Z,100220.25
2023-09-08T16:15:54.546Z,100206.91
2023-09-08T16:18:21.513Z,100206.91
2023-09-08T16:20:49.310Z,100211.44
2023-09-08T16:23:16.315Z,100215.50
2023-09-08T16:25:43.320Z,100219.00
2023-09-08T16:28:11.158Z,100212.31
2023-09-08T16:30:38.124Z,100214.72
2023-09-08T16:33:05.427Z,100211.75
2023-09-08T16:35:32.505Z,100207.47
2023-09-08T16:37:59.559Z,100206.69
2023-09-08T16:40:26.983Z,100208.00
2023-09-08T16:42:54.016Z,100209.09
2023-09-08T16:45:21.051Z,100201.03
2023-09-08T16:47:48.026Z,100203.75
2023-09-08T16:50:15.010Z,100206.94
2023-09-08T16:52:42.050Z,100198.66
2023-09-08T16:55:12.459Z,100210.97
2023-09-08T16:57:40.430Z,100214.16
2023-09-08T17:00:09.220Z,100202.94
2023-09-08T17:02:39.438Z,100204.25
2023-09-08T17:05:09.216Z,100211.50
2023-09-08T17:07:36.350Z,100200.97
2023-09-08T17:10:04.728Z,100205.22
2023-09-08T17:12:32.667Z,100207.13
2023-09-08T17:14:59.714Z,100201.47
2023-09-08T17:17:26.816Z,100199.34
2023-09-08T17:19:53.859Z,100197.69
2023-09-08T17:22:20.976Z,100207.59
2023-09-08T17:24:48.026Z,100209.88
2023-09-08T17:27:15.053Z,100212.53
2023-09-08T17:29:42.018Z,100214.69
2023-09-08T17:32:09.978Z,100208.78
2023-09-08T17:34:36.911Z,100212.72
2023-09-08T17:37:04.501Z,100222.47
2023-09-08T17:39:31.765Z,100231.19
2023-09-08T17:41:58.848Z,100224.28
2023-09-08T17:44:26.085Z,100231.97
2023-09-08T17:46:53.331Z,100231.50
2023-09-08T17:49:20.369Z,100243.47
2023-09-08T17:51:47.443Z,100248.47
2023-09-08T17:54:14.489Z,100258.44
2023-09-08T17:56:41.654Z,100246.84
2023-09-08T17:59:08.885Z,100255.84
2023-09-08T18:01:38.147Z,100258.34
2023-09-08T18:04:07.200Z,100253.38
2023-09-08T18:06:34.348Z,100256.19
2023-09-08T18:09:02.014Z,100258.66
2023-09-08T18:11:29.363Z,100271.91
2023-09-08T18:13:57.111Z,100272.59
2023-09-08T18:16:24.480Z,100273.13
2023-09-08T18:18:51.577Z,100279.78
2023-09-08T18:21:18.673Z,100273.31
2023-09-08T18:23:47.531Z,100289.34
2023-09-08T18:26:17.353Z,100284.19
2023-09-08T18:28:44.687Z,100285.81
2023-09-08T18:31:12.505Z,100294.97
2023-09-08T18:33:39.885Z,100292.94
2023-09-08T18:36:07.791Z,100293.97
2023-09-08T18:38:35.291Z,100291.66
2023-09-08T18:41:02.530Z,100295.13
2023-09-08T18:43:29.709Z,100299.47
2023-09-08T18:45:56.727Z,100295.91
2023-09-08T18:48:24.403Z,100298.75
2023-09-08T18:50:51.644Z,100314.53
2023-09-08T18:53:18.695Z,100309.56
2023-09-08T18:55:46.004Z,100307.34
2023-09-08T18:58:14.465Z,100306.09
2023-09-08T19:00:45.994Z,100304.50
2023-09-08T19:03:13.753Z,100316.97
2023-09-08T19:05:41.884Z,100332.44
2023-09-08T19:08:09.740Z,100327.69
2023-09-08T19:10:37.318Z,100326.56
2023-09-08T19:13:05.521Z,100323.19
2023-09-08T19:15:32.848Z,100326.66
2023-09-08T19:18:00.061Z,100325.06
2023-09-08T19:20:27.191Z,100324.50
2023-09-08T19:22:54.890Z,100322.84
2023-09-08T19:25:22.578Z,100320.53
2023-09-08T19:27:50.759Z,100329.69
2023-09-08T19:30:18.441Z,100325.03
2023-09-08T19:32:45.893Z,100329.88
2023-09-08T19:35:13.118Z,100330.09
2023-09-08T19:37:40.352Z,100332.56
2023-09-08T19:40:08.613Z,100330.09
2023-09-08T19:42:35.672Z,100322.22
2023-09-08T19:45:02.852Z,100324.97
2023-09-08T19:47:30.041Z,100324.25
2023-09-08T19:49:57.241Z,100319.97
2023-09-08T19:52:24.285Z,100317.81
2023-09-08T19:54:51.323Z,100319.22
2023-09-08T19:57:18.405Z,100320.63
2023-09-08T19:59:46.441Z,100327.72
2023-09-08T20:02:13.427Z,100318.13
2023-09-08T20:04:40.742Z,100323.03
2023-09-08T20:07:08.025Z,100325.50
2023-09-08T20:09:35.048Z,100318.25
2023-09-08T20:12:02.443Z,100319.88
2023-09-08T20:14:30.683Z,100317.22
2023-09-08T20:16:57.683Z,100316.03
2023-09-08T20:19:24.566Z,100312.16
2023-09-08T20:21:51.607Z,100318.53
2023-09-08T20:24:19.408Z,100318.19
2023-09-08T20:26:46.316Z,100328.53
2023-09-08T20:29:13.750Z,100316.09
2023-09-08T20:31:40.872Z,100326.53
2023-09-08T20:34:08.201Z,100325.91
2023-09-08T20:36:35.201Z,100324.66
2023-09-08T20:39:02.191Z,100319.56
2023-09-08T20:41:30.429Z,100310.31
2023-09-08T20:43:57.530Z,100314.63
2023-09-08T20:46:24.584Z,100311.41
2023-09-08T20:48:51.626Z,100307.25
2023-09-08T20:51:24.054Z,100326.03
2023-09-08T20:53:51.076Z,100315.34
2023-09-08T20:56:18.082Z,100318.72
2023-09-08T20:58:45.092Z,100322.56
2023-09-08T21:01:12.226Z,100319.13
2023-09-08T21:03:40.297Z,100324.31
2023-09-08T21:06:08.435Z,100322.91
2023-09-08T21:08:35.385Z,100323.66
2023-09-08T21:11:03.538Z,100317.69
2023-09-08T21:13:30.770Z,100317.22
2023-09-08T21:15:57.804Z,100323.81
2023-09-08T21:18:24.827Z,100316.84
2023-09-08T21:20:51.889Z,100314.00
2023-09-08T21:23:19.291Z,100311.50
2023-09-08T21:25:46.293Z,100307.41
2023-09-08T21:28:13.357Z,100310.75
2023-09-08T21:30:40.753Z,100308.84
2023-09-08T21:33:07.859Z,100305.06
2023-09-08T21:35:35.040Z,100312.16
2023-09-08T21:38:02.060Z,100309.94
2023-09-08T21:40:29.776Z,100310.75
2023-09-08T21:42:56.816Z,100314.91
2023-09-08T21:45:23.929Z,100310.00
2023-09-08T21:47:51.664Z,100310.44
2023-09-08T21:50:19.219Z,100313.09
2023-09-08T21:52:46.510Z,100317.94
2023-09-08T21:55:14.103Z,100311.25
2023-09-08T21:57:41.340Z,100311.06
2023-09-08T22:00:12.619Z,100308.84
2023-09-08T22:02:39.831Z,100311.50
2023-09-08T22:05:07.464Z,100311.88
2023-09-08T22:07:34.643Z,100314.72
2023-09-08T22:10:01.727Z,100309.25
2023-09-08T22:12:29.258Z,100301.91
2023-09-08T22:14:56.767Z,100296.44
2023-09-08T22:17:23.911Z,100290.72
2023-09-08T22:19:54.473Z,100298.44
2023-09-08T22:22:21.541Z,100301.31
2023-09-08T22:24:48.541Z,100292.97
2023-09-08T22:27:15.773Z,100298.03
2023-09-08T22:29:42.774Z,100288.72
2023-09-08T22:32:10.066Z,100295.25
2023-09-08T22:34:37.218Z,100301.34
2023-09-08T22:37:05.027Z,100299.66
2023-09-08T22:39:33.611Z,100306.34
2023-09-08T22:42:00.591Z,100306.94
2023-09-08T22:44:27.640Z,100306.50
2023-09-08T22:46:54.694Z,100310.97
2023-09-08T22:49:21.644Z,100309.19
2023-09-08T22:51:48.720Z,100305.28
2023-09-08T22:54:15.781Z,100304.63
2023-09-08T22:56:43.009Z,100315.78
2023-09-08T22:59:10.703Z,100316.34
2023-09-08T23:01:38.106Z,100316.34
2023-09-08T23:04:06.201Z,100306.56
2023-09-08T23:06:33.365Z,100303.91
2023-09-08T23:09:00.376Z,100306.53
2023-09-08T23:11:29.626Z,100308.16
2023-09-08T23:13:56.725Z,100316.63
2023-09-08T23:16:24.327Z,100309.66
2023-09-08T23:18:51.324Z,100313.59
2023-09-08T23:21:18.317Z,100309.41
2023-09-08T23:23:45.252Z,100300.94
2023-09-08T23:26:12.165Z,100309.19
2023-09-08T23:28:39.116Z,100300.88
2023-09-08T23:31:06.125Z,100297.91
2023-09-08T23:33:33.155Z,100293.28
2023-09-08T23:36:00.277Z,100294.47
2023-09-08T23:38:27.317Z,100295.66
2023-09-08T23:40:54.229Z,100295.81
2023-09-08T23:43:21.249Z,100295.16
2023-09-08T23:45:48.353Z,100300.16
2023-09-08T23:48:15.671Z,100299.41
2023-09-08T23:50:58.223Z,100292.97
2023-09-08T23:53:29.680Z,100299.25
2023-09-08T23:55:57.060Z,100300.09
2023-09-08T23:58:24.136Z,100303.28
